Time;durP1;ratioP1;P1;durP2;ratioP2;P2;SDS_P1;SDS_P2;PMS_P1;PMS_P2;Temp;Humidity;BMP_temperature;BMP_pressure;BME280_temperature;BME280_humidity;BME280_pressure;Samples;Min_cycle;Max_cycle;Signal;HPM_P1;HPM_P2
2022/09/16 00:00:43;;;;;;;18.77;3.83;;;;;;;;;;4981950;28;20491;-80
2022/09/16 00:03:09;;;;;;;13.02;3.20;;;;;;;;;;4998119;28;20035;-81
2022/09/16 00:05:41;;;;;;;14.98;3.45;;;;;;;;;;4981267;28;20035;-81
2022/09/16 00:08:07;;;;;;;18.05;3.60;;;;;;;;;;4998649;28;20011;-81
2022/09/16 00:10:34;;;;;;;12.70;3.35;;;;;;;;;;4959048;28;20219;-82
2022/09/16 00:13:00;;;;;;;19.95;3.33;;;;;;;;;;4982287;28;20042;-82
2022/09/16 00:15:26;;;;;;;16.50;3.05;;;;;;;;;;4996025;28;20034;-81
2022/09/16 00:17:52;;;;;;;18.00;3.35;;;;;;;;;;4977595;28;20034;-81
2022/09/16 00:20:18;;;;;;;18.33;3.72;;;;;;;;;;4994941;28;20046;-81
2022/09/16 00:22:44;;;;;;;29.45;4.18;;;;;;;;;;4978599;28;20030;-77
2022/09/16 00:25:10;;;;;;;13.10;3.42;;;;;;;;;;4973278;28;20510;-79
2022/09/16 00:27:36;;;;;;;26.45;4.45;;;;;;;;;;4994984;28;20053;-79
2022/09/16 00:30:07;;;;;;;14.60;3.22;;;;;;;;;;4973110;28;20480;-79
2022/09/16 00:32:33;;;;;;;;;;;;;;;;;;4972566;28;20030;-78
2022/09/16 00:34:59;;;;;;;13.13;2.80;;;;;;;;;;4986045;28;19980;-78
2022/09/16 00:37:25;;;;;;;15.02;2.60;;;;;;;;;;4990402;28;20611;-78
2022/09/16 00:39:51;;;;;;;15.75;2.63;;;;;;;;;;4969463;28;20502;-78
2022/09/16 00:42:18;;;;;;;16.13;3.08;;;;;;;;;;4974287;28;20034;-78
2022/09/16 00:45:03;;;;;;;10.70;2.63;;;;;;;;;;4987950;28;20065;-78
2022/09/16 00:47:55;;;;;;;12.98;2.63;;;;;;;;;;4988627;28;20030;-77
2022/09/16 00:50:26;;;;;;;10.75;2.08;;;;;;;;;;4980363;28;20125;-77
2022/09/16 00:52:52;;;;;;;12.60;2.20;;;;;;;;;;4968934;28;20030;-77
2022/09/16 00:55:20;;;;;;;10.52;2.00;;;;;;;;;;4985345;28;20257;-77
2022/09/16 00:57:47;;;;;;;11.00;2.40;;;;;;;;;;4984558;28;20030;-77
2022/09/16 01:00:13;;;;;;;14.77;2.30;;;;;;;;;;4964999;28;20554;-77
2022/09/16 01:02:40;;;;;;;8.30;2.47;;;;;;;;;;4962527;28;20038;-77
2022/09/16 01:05:11;;;;;;;10.43;2.08;;;;;;;;;;4986404;28;20041;-77
2022/09/16 01:07:47;;;;;;;10.63;2.23;;;;;;;;;;4986336;28;20503;-78
2022/09/16 01:10:14;;;;;;;10.27;2.10;;;;;;;;;;4982284;28;20531;-78
2022/09/16 01:12:42;;;;;;;9.82;2.15;;;;;;;;;;4986446;28;20030;-77
2022/09/16 01:15:09;;;;;;;10.45;2.53;;;;;;;;;;4986239;28;20062;-77
2022/09/16 01:17:35;;;;;;;12.05;2.08;;;;;;;;;;4983401;28;20496;-78
2022/09/16 01:20:20;;;;;;;12.70;1.95;;;;;;;;;;4981950;28;20041;-78
2022/09/16 01:22:46;;;;;;;9.82;2.33;;;;;;;;;;4985478;28;20035;-78
2022/09/16 01:25:14;;;;;;;10.50;2.20;;;;;;;;;;4986960;28;20113;-78
2022/09/16 01:27:53;;;;;;;10.07;1.88;;;;;;;;;;4987988;28;20113;-78
2022/09/16 01:30:31;;;;;;;12.48;2.38;;;;;;;;;;4984564;28;20475;-79
2022/09/16 01:33:03;;;;;;;12.40;3.80;;;;;;;;;;4985500;28;20051;-79
2022/09/16 01:35:38;;;;;;;17.92;3.65;;;;;;;;;;4986833;28;20097;-80
2022/09/16 01:38:23;;;;;;;13.07;2.90;;;;;;;;;;4962792;28;20029;-80
2022/09/16 01:40:54;;;;;;;9.38;2.67;;;;;;;;;;4983502;28;20117;-80
2022/09/16 01:43:24;;;;;;;11.43;2.88;;;;;;;;;;4985672;28;20105;-80
2022/09/16 01:45:50;;;;;;;15.15;2.95;;;;;;;;;;4968812;28;20026;-80
2022/09/16 01:48:16;;;;;;;16.23;3.63;;;;;;;;;;4985272;28;20484;-80
2022/09/16 01:50:48;;;;;;;21.15;3.15;;;;;;;;;;4989816;28;20043;-80
2022/09/16 01:53:18;;;;;;;12.15;2.97;;;;;;;;;;4988253;28;20117;-80
2022/09/16 01:55:56;;;;;;;16.70;3.13;;;;;;;;;;4989121;28;20500;-80
2022/09/16 01:58:28;;;;;;;15.82;3.30;;;;;;;;;;4972262;28;20105;-80
2022/09/16 02:00:57;;;;;;;10.30;3.97;;;;;;;;;;4989095;28;20027;-81
2022/09/16 02:03:26;;;;;;;15.10;3.88;;;;;;;;;;4970483;28;20484;-80
2022/09/16 02:05:54;;;;;;;23.33;4.72;;;;;;;;;;4990445;28;20286;-80
2022/09/16 02:08:24;;;;;;;10.77;3.60;;;;;;;;;;4989019;28;20122;-80
2022/09/16 02:10:53;;;;;;;15.98;3.97;;;;;;;;;;4989345;28;20076;-79
2022/09/16 02:13:21;;;;;;;17.00;4.22;;;;;;;;;;4988273;28;20038;-80
2022/09/16 02:15:49;;;;;;;12.48;5.05;;;;;;;;;;4989335;28;20117;-80
2022/09/16 02:18:18;;;;;;;21.73;4.05;;;;;;;;;;4970839;28;20034;-79
2022/09/16 02:20:45;;;;;;;17.27;5.70;;;;;;;;;;4990287;28;20026;-80
2022/09/16 02:23:17;;;;;;;14.85;4.60;;;;;;;;;;4991249;28;20603;-80
2022/09/16 02:25:44;;;;;;;17.50;4.88;;;;;;;;;;4989459;28;20031;-80
2022/09/16 02:28:13;;;;;;;18.20;4.35;;;;;;;;;;4988533;28;20096;-80
2022/09/16 02:30:42;;;;;;;16.20;4.53;;;;;;;;;;4987297;28;20045;-78
2022/09/16 02:33:09;;;;;;;15.40;4.72;;;;;;;;;;4986769;28;20077;-78
2022/09/16 02:35:36;;;;;;;19.88;3.42;;;;;;;;;;4984432;28;20038;-76
2022/09/16 02:38:22;;;;;;;11.07;3.05;;;;;;;;;;4988367;28;20076;-77
2022/09/16 02:40:55;;;;;;;12.60;3.40;;;;;;;;;;4970739;28;20527;-77
2022/09/16 02:43:22;;;;;;;22.02;4.22;;;;;;;;;;4988648;28;20479;-78
2022/09/16 02:46:03;;;;;;;12.68;3.72;;;;;;;;;;4990805;28;20032;-77
2022/09/16 02:48:42;;;;;;;11.80;3.08;;;;;;;;;;4987827;28;20054;-77
2022/09/16 02:51:17;;;;;;;13.73;3.50;;;;;;;;;;4989487;28;20516;-78
2022/09/16 02:53:46;;;;;;;15.90;3.40;;;;;;;;;;4987865;28;20057;-79
2022/09/16 02:56:22;;;;;;;18.17;3.53;;;;;;;;;;4992977;28;20037;-78
2022/09/16 02:58:48;;;;;;;11.75;3.00;;;;;;;;;;4988617;28;20037;-78
2022/09/16 03:01:15;;;;;;;11.20;3.00;;;;;;;;;;4990327;28;20053;-77
2022/09/16 03:03:41;;;;;;;12.25;3.22;;;;;;;;;;4956584;28;20034;-79
2022/09/16 03:06:21;;;;;;;25.33;3.30;;;;;;;;;;4997192;28;20026;-80
2022/09/16 03:08:48;;;;;;;14.47;3.97;;;;;;;;;;4993514;28;20026;-79
2022/09/16 03:11:14;;;;;;;15.27;3.38;;;;;;;;;;4995886;28;20020;-79
2022/09/16 03:13:59;;;;;;;15.80;4.60;;;;;;;;;;4994134;28;20090;-80
2022/09/16 03:16:32;;;;;;;12.93;4.78;;;;;;;;;;4998759;28;20030;-79
2022/09/16 03:18:58;;;;;;;17.17;4.75;;;;;;;;;;4996557;28;20049;-79
2022/09/16 03:21:27;;;;;;;11.95;4.60;;;;;;;;;;4998212;28;20031;-79
2022/09/16 03:23:56;;;;;;;17.33;4.95;;;;;;;;;;4995576;28;20842;-80
2022/09/16 03:26:26;;;;;;;15.13;4.97;;;;;;;;;;4996431;28;20027;-80
2022/09/16 03:29:11;;;;;;;18.05;4.43;;;;;;;;;;4993111;28;20449;-78
2022/09/16 03:31:46;;;;;;;18.38;4.65;;;;;;;;;;4986994;28;20496;-76
2022/09/16 03:34:35;;;;;;;10.90;2.67;;;;;;;;;;4986008;28;20031;-76
2022/09/16 03:37:04;;;;;;;10.70;1.95;;;;;;;;;;4943160;28;20309;-76
2022/09/16 03:39:30;;;;;;;8.45;1.65;;;;;;;;;;4968803;28;20050;-73
2022/09/16 03:42:00;;;;;;;8.38;1.65;;;;;;;;;;4987999;28;20484;-75
2022/09/16 03:44:34;;;;;;;8.00;1.80;;;;;;;;;;4967385;28;20030;-76
2022/09/16 03:47:00;;;;;;;10.25;2.03;;;;;;;;;;4989200;28;20065;-76
2022/09/16 03:49:26;;;;;;;8.80;2.17;;;;;;;;;;4966203;28;20038;-76
2022/09/16 03:51:52;;;;;;;9.00;2.28;;;;;;;;;;4986902;28;20510;-76
2022/09/16 03:54:18;;;;;;;9.38;2.45;;;;;;;;;;4984653;28;20046;-77
2022/09/16 03:56:44;;;;;;;10.82;1.85;;;;;;;;;;4987711;28;20026;-78
2022/09/16 03:59:10;;;;;;;12.07;2.00;;;;;;;;;;4985505;28;20473;-76
2022/09/16 04:01:36;;;;;;;11.85;2.00;;;;;;;;;;4968823;28;20031;-75
2022/09/16 04:04:02;;;;;;;11.88;2.42;;;;;;;;;;4966949;28;20035;-76
2022/09/16 04:06:29;;;;;;;17.60;2.78;;;;;;;;;;4984665;28;20045;-76
2022/09/16 04:08:57;;;;;;;12.48;2.63;;;;;;;;;;4983201;28;20030;-75
2022/09/16 04:11:23;;;;;;;8.38;2.53;;;;;;;;;;4988533;28;20033;-75
2022/09/16 04:13:49;;;;;;;14.68;3.72;;;;;;;;;;4983606;28;20043;-74
2022/09/16 04:16:20;;;;;;;19.63;4.07;;;;;;;;;;4987157;28;20089;-75
2022/09/16 04:18:46;;;;;;;19.80;3.90;;;;;;;;;;4985864;28;20415;-75
2022/09/16 04:21:12;;;;;;;16.73;3.72;;;;;;;;;;4985960;28;20526;-75
2022/09/16 04:23:38;;;;;;;26.20;5.07;;;;;;;;;;4985900;28;21138;-75
2022/09/16 04:26:04;;;;;;;11.68;4.05;;;;;;;;;;4985565;28;20496;-76
2022/09/16 04:28:31;;;;;;;14.15;3.10;;;;;;;;;;4968034;28;20121;-76
2022/09/16 04:31:01;;;;;;;13.15;3.47;;;;;;;;;;4985956;28;20045;-76
2022/09/16 04:33:34;;;;;;;18.63;3.13;;;;;;;;;;4983354;28;20022;-76
2022/09/16 04:36:11;;;;;;;15.30;3.28;;;;;;;;;;4984784;28;20034;-75
2022/09/16 04:38:37;;;;;;;18.23;3.10;;;;;;;;;;4982624;28;20027;-76
2022/09/16 04:41:05;;;;;;;15.80;2.83;;;;;;;;;;4984162;28;20034;-76
2022/09/16 04:43:31;;;;;;;11.25;3.05;;;;;;;;;;4984669;28;20483;-77
2022/09/16 04:45:57;;;;;;;10.45;2.83;;;;;;;;;;4986407;28;20034;-77
2022/09/16 04:48:24;;;;;;;14.52;2.78;;;;;;;;;;4984155;28;20030;-76
2022/09/16 04:50:50;;;;;;;13.00;3.50;;;;;;;;;;4985801;28;20030;-75
2022/09/16 04:53:16;;;;;;;20.13;3.95;;;;;;;;;;4967456;28;20061;-77
2022/09/16 04:55:43;;;;;;;14.48;3.15;;;;;;;;;;4983714;28;20053;-75
2022/09/16 04:58:09;;;;;;;17.15;3.50;;;;;;;;;;4985336;28;20034;-76
2022/09/16 05:00:35;;;;;;;15.77;3.55;;;;;;;;;;4984277;28;20022;-77
2022/09/16 05:03:01;;;;;;;11.27;2.97;;;;;;;;;;4983200;28;20039;-75
2022/09/16 05:05:27;;;;;;;16.98;3.17;;;;;;;;;;4983476;28;20719;-76
2022/09/16 05:07:53;;;;;;;22.50;3.92;;;;;;;;;;4983896;28;20038;-76
2022/09/16 05:10:19;;;;;;;14.63;2.80;;;;;;;;;;4970017;28;20096;-77
2022/09/16 05:12:49;;;;;;;15.35;3.05;;;;;;;;;;4985313;28;20088;-76
2022/09/16 05:15:15;;;;;;;13.90;2.83;;;;;;;;;;4984477;28;20589;-76
2022/09/16 05:17:42;;;;;;;12.48;2.80;;;;;;;;;;4984957;28;20023;-76
2022/09/16 05:20:08;;;;;;;12.23;3.03;;;;;;;;;;4983116;28;20030;-75
2022/09/16 05:22:34;;;;;;;18.10;2.72;;;;;;;;;;4960542;28;20026;-75
2022/09/16 05:25:00;;;;;;;12.65;3.08;;;;;;;;;;4986553;28;20034;-75
2022/09/16 05:27:30;;;;;;;12.10;2.90;;;;;;;;;;4984631;28;20565;-76
2022/09/16 05:29:56;;;;;;;7.57;2.40;;;;;;;;;;4986414;28;20205;-75
2022/09/16 05:32:22;;;;;;;9.60;2.50;;;;;;;;;;4989831;28;20483;-76
2022/09/16 05:34:49;;;;;;;10.85;2.53;;;;;;;;;;4972926;28;20506;-76
2022/09/16 05:37:15;;;;;;;7.75;2.53;;;;;;;;;;4984512;28;20026;-76
2022/09/16 05:39:41;;;;;;;9.82;3.03;;;;;;;;;;4988314;28;20161;-76
2022/09/16 05:42:08;;;;;;;10.32;2.80;;;;;;;;;;4974459;28;20030;-75
2022/09/16 05:44:34;;;;;;;13.95;2.95;;;;;;;;;;4989944;28;20030;-76
2022/09/16 05:47:01;;;;;;;13.43;3.03;;;;;;;;;;4972617;28;20056;-77
2022/09/16 05:49:27;;;;;;;14.23;2.80;;;;;;;;;;4990953;28;20034;-77
2022/09/16 05:51:53;;;;;;;13.88;3.53;;;;;;;;;;4994290;28;20034;-78
2022/09/16 05:54:19;;;;;;;10.73;3.70;;;;;;;;;;4993031;28;20054;-77
2022/09/16 05:56:46;;;;;;;15.93;3.15;;;;;;;;;;4992210;28;20094;-77
2022/09/16 05:59:13;;;;;;;8.80;3.75;;;;;;;;;;4991928;28;20117;-77
2022/09/16 06:01:39;;;;;;;13.02;3.25;;;;;;;;;;4977329;28;20097;-76
2022/09/16 06:04:06;;;;;;;10.10;3.22;;;;;;;;;;4989406;28;20094;-75
2022/09/16 06:06:33;;;;;;;14.00;3.65;;;;;;;;;;4973022;28;20802;-76
2022/09/16 06:09:01;;;;;;;12.10;2.92;;;;;;;;;;4987066;28;20047;-76
2022/09/16 06:11:28;;;;;;;17.50;3.35;;;;;;;;;;4972286;28;20491;-76
2022/09/16 06:13:55;;;;;;;7.63;2.47;;;;;;;;;;4973959;28;20603;-76
2022/09/16 06:16:21;;;;;;;11.00;2.90;;;;;;;;;;4989835;28;20361;-75
2022/09/16 06:18:47;;;;;;;12.93;2.40;;;;;;;;;;4989738;28;20470;-75
2022/09/16 06:21:13;;;;;;;12.35;2.70;;;;;;;;;;4992943;28;20039;-76
2022/09/16 06:23:39;;;;;;;8.60;2.22;;;;;;;;;;4979688;28;20518;-77
2022/09/16 06:26:07;;;;;;;11.95;2.60;;;;;;;;;;4997455;28;20054;-76
2022/09/16 06:28:33;;;;;;;15.88;2.65;;;;;;;;;;4971842;28;20026;-76
2022/09/16 06:31:03;;;;;;;7.88;2.30;;;;;;;;;;4983247;28;20042;-74
2022/09/16 06:33:29;;;;;;;12.43;2.67;;;;;;;;;;4984877;28;20038;-76
2022/09/16 06:35:56;;;;;;;10.27;2.20;;;;;;;;;;4972338;28;20404;-77
2022/09/16 06:48:11;;;;;;;12.00;2.45;;;;;;;;;;4947252;28;20062;-72
2022/09/16 06:50:40;;;;;;;10.02;1.90;;;;;;;;;;4946142;28;20130;-73
2022/09/16 06:53:06;;;;;;;11.73;2.20;;;;;;;;;;4943954;28;20517;-73
2022/09/16 06:55:33;;;;;;;10.25;1.90;;;;;;;;;;4936495;28;20042;-73
2022/09/16 06:57:59;;;;;;;6.95;1.98;;;;;;;;;;4937519;28;20047;-73
2022/09/16 07:00:25;;;;;;;12.85;1.67;;;;;;;;;;4941942;28;20094;-72
2022/09/16 07:02:51;;;;;;;11.10;2.20;;;;;;;;;;4952928;28;20027;-72
2022/09/16 07:05:17;;;;;;;4.93;1.63;;;;;;;;;;4948221;28;20106;-72
2022/09/16 07:07:43;;;;;;;8.77;1.48;;;;;;;;;;4942844;28;20501;-72
2022/09/16 07:10:09;;;;;;;9.07;1.30;;;;;;;;;;4942379;28;20047;-72
2022/09/16 07:12:35;;;;;;;5.90;1.38;;;;;;;;;;4942649;28;20094;-72
2022/09/16 07:15:01;;;;;;;9.85;1.55;;;;;;;;;;4940231;28;20043;-72
2022/09/16 07:17:27;;;;;;;11.45;2.00;;;;;;;;;;4945166;29;20054;-71
2022/09/16 07:19:53;;;;;;;7.60;1.35;;;;;;;;;;4925325;29;20038;-71
2022/09/16 07:22:19;;;;;;;4.05;1.15;;;;;;;;;;4944672;28;20031;-71
2022/09/16 07:24:45;;;;;;;10.80;1.73;;;;;;;;;;4944323;28;20465;-71
2022/09/16 07:27:11;;;;;;;7.65;1.35;;;;;;;;;;4946025;29;20027;-71
2022/09/16 07:29:37;;;;;;;4.95;1.10;;;;;;;;;;4942161;28;20031;-70
2022/09/16 07:32:03;;;;;;;6.22;1.20;;;;;;;;;;4935287;28;20042;-71
2022/09/16 07:34:29;;;;;;;5.85;1.15;;;;;;;;;;4948654;28;20031;-70
2022/09/16 07:36:55;;;;;;;4.72;1.23;;;;;;;;;;4943691;28;20050;-71
2022/09/16 07:39:24;;;;;;;8.50;1.60;;;;;;;;;;4941423;28;20461;-70
2022/09/16 07:41:50;;;;;;;4.85;1.20;;;;;;;;;;4939790;28;20023;-70
2022/09/16 07:44:17;;;;;;;8.35;1.52;;;;;;;;;;4941548;28;20118;-70
2022/09/16 07:46:43;;;;;;;9.38;1.63;;;;;;;;;;4960183;23;20448;-76
2022/09/16 07:49:11;;;;;;;6.53;1.75;;;;;;;;;;4907073;29;20648;-76
2022/09/16 07:51:40;;;;;;;8.90;1.60;;;;;;;;;;4904562;29;20102;-76
2022/09/16 07:54:08;;;;;;;9.77;1.65;;;;;;;;;;4915559;29;20364;-75
2022/09/16 07:56:36;;;;;;;6.90;1.45;;;;;;;;;;4907162;29;20028;-75
2022/09/16 07:59:03;;;;;;;6.72;1.30;;;;;;;;;;4922460;29;20040;-76
2022/09/16 08:01:30;;;;;;;6.68;1.85;;;;;;;;;;4913224;29;20158;-76
2022/09/16 08:03:56;;;;;;;9.20;1.30;;;;;;;;;;4925903;29;20068;-77
2022/09/16 08:06:23;;;;;;;8.88;1.58;;;;;;;;;;4910544;29;20054;-77
2022/09/16 08:08:54;;;;;;;7.47;1.30;;;;;;;;;;4952172;28;20035;-77
2022/09/16 08:11:20;;;;;;;4.10;1.45;;;;;;;;;;4916423;29;20043;-77
2022/09/16 08:13:46;;;;;;;9.18;1.20;;;;;;;;;;4949223;28;20074;-77
2022/09/16 08:16:13;;;;;;;6.13;1.30;;;;;;;;;;4937082;29;20027;-77
2022/09/16 08:18:40;;;;;;;6.90;1.25;;;;;;;;;;4918314;29;20038;-77
2022/09/16 08:21:07;;;;;;;7.85;1.20;;;;;;;;;;4935919;29;20370;-77
2022/09/16 08:23:33;;;;;;;7.38;1.45;;;;;;;;;;4916781;29;20146;-76
2022/09/16 08:26:00;;;;;;;5.07;1.17;;;;;;;;;;4916748;29;20043;-75
2022/09/16 08:28:26;;;;;;;6.18;1.80;;;;;;;;;;4932716;29;20456;-75
2022/09/16 08:30:52;;;;;;;4.55;1.30;;;;;;;;;;4896054;29;20046;-77
2022/09/16 08:33:20;;;;;;;5.43;1.02;;;;;;;;;;4928449;29;20035;-77
2022/09/16 08:36:09;;;;;;;5.82;1.05;;;;;;;;;;4909479;29;20196;-84
2022/09/16 08:38:54;;;;;;;5.88;0.93;;;;;;;;;;4908591;29;20443;-76
2022/09/16 08:41:20;;;;;;;8.25;1.38;;;;;;;;;;4924079;29;20171;-75
2022/09/16 08:44:06;;;;;;;6.70;1.20;;;;;;;;;;4927503;29;20118;-76
2022/09/16 08:46:35;;;;;;;4.78;1.65;;;;;;;;;;4923112;29;20094;-77
2022/09/16 08:49:08;;;;;;;2.58;0.82;;;;;;;;;;4928554;29;20090;-76
2022/09/16 08:51:34;;;;;;;4.93;0.80;;;;;;;;;;4923485;29;20042;-76
2022/09/16 08:54:06;;;;;;;5.05;1.58;;;;;;;;;;4943963;28;20502;-76
2022/09/16 08:56:35;;;;;;;6.18;1.10;;;;;;;;;;4933074;29;20040;-76
2022/09/16 08:59:02;;;;;;;4.68;1.08;;;;;;;;;;4908975;29;20513;-76
2022/09/16 09:01:35;;;;;;;8.93;1.10;;;;;;;;;;4925250;29;20180;-76
2022/09/16 09:04:01;;;;;;;9.80;2.35;;;;;;;;;;4929621;29;20110;-76
2022/09/16 09:06:46;;;;;;;4.78;1.10;;;;;;;;;;4911467;29;20031;-77
2022/09/16 09:09:31;;;;;;;5.78;1.33;;;;;;;;;;4944811;28;20031;-75
2022/09/16 09:12:13;;;;;;;12.45;1.52;;;;;;;;;;4930082;29;20044;-76
2022/09/16 09:14:58;;;;;;;6.80;1.40;;;;;;;;;;4929607;29;20188;-76
2022/09/16 09:17:30;;;;;;;3.97;1.70;;;;;;;;;;4910300;29;20036;-76
2022/09/16 09:20:05;;;;;;;6.20;1.20;;;;;;;;;;4929460;29;20032;-78
2022/09/16 09:22:52;;;;;;;4.22;1.15;;;;;;;;;;4928826;29;20078;-76
2022/09/16 09:25:33;;;;;;;5.95;1.20;;;;;;;;;;4930226;29;20059;-75
2022/09/16 09:28:16;;;;;;;5.18;0.95;;;;;;;;;;4929420;29;20441;-75
2022/09/16 09:30:44;;;;;;;7.55;0.80;;;;;;;;;;4931107;29;20055;-76
2022/09/16 09:33:10;;;;;;;11.10;1.10;;;;;;;;;;4933687;29;20040;-75
2022/09/16 09:35:39;;;;;;;8.30;1.30;;;;;;;;;;4933615;28;20032;-76
2022/09/16 09:38:14;;;;;;;8.30;1.20;;;;;;;;;;4932333;29;20127;-76
2022/09/16 09:40:43;;;;;;;6.00;1.30;;;;;;;;;;4935485;29;20039;-76
2022/09/16 09:43:16;;;;;;;10.55;1.33;;;;;;;;;;4937160;29;20027;-76
2022/09/16 09:45:49;;;;;;;5.93;1.20;;;;;;;;;;4930416;28;20044;-76
2022/09/16 09:48:27;;;;;;;5.85;1.60;;;;;;;;;;4934091;29;20079;-75
2022/09/16 09:50:53;;;;;;;7.47;1.30;;;;;;;;;;4941289;29;20485;-77
2022/09/16 09:53:22;;;;;;;4.97;1.10;;;;;;;;;;4931905;29;20306;-77
2022/09/16 09:55:50;;;;;;;5.30;1.30;;;;;;;;;;4925912;29;20033;-76
2022/09/16 09:58:33;;;;;;;6.30;1.30;;;;;;;;;;4929517;29;20182;-78
2022/09/16 10:01:00;;;;;;;4.05;0.80;;;;;;;;;;4928972;29;20040;-76
2022/09/16 10:03:26;;;;;;;6.40;1.15;;;;;;;;;;4935365;29;20043;-77
2022/09/16 10:05:54;;;;;;;3.40;0.82;;;;;;;;;;4935153;29;20036;-76
2022/09/16 10:08:20;;;;;;;8.30;1.10;;;;;;;;;;4930662;29;20394;-77
2022/09/16 10:10:54;;;;;;;9.05;1.20;;;;;;;;;;4933655;29;20038;-77
2022/09/16 10:13:20;;;;;;;8.48;0.90;;;;;;;;;;4940847;29;20036;-75
2022/09/16 10:16:05;;;;;;;4.03;0.82;;;;;;;;;;4920206;29;20050;-76
2022/09/16 10:18:32;;;;;;;4.30;0.75;;;;;;;;;;4941493;29;20093;-77
2022/09/16 10:21:04;;;;;;;7.07;1.02;;;;;;;;;;4935586;29;20955;-77
2022/09/16 10:23:32;;;;;;;4.75;1.00;;;;;;;;;;4937025;29;20043;-76
2022/09/16 10:26:19;;;;;;;5.82;1.00;;;;;;;;;;4957423;28;20333;-77
2022/09/16 10:28:59;;;;;;;4.60;0.85;;;;;;;;;;4938026;29;20051;-77
2022/09/16 10:31:26;;;;;;;3.97;0.88;;;;;;;;;;4937506;29;20047;-77
2022/09/16 10:33:52;;;;;;;3.65;0.95;;;;;;;;;;4913746;29;20926;-78
2022/09/16 10:36:19;;;;;;;4.43;1.00;;;;;;;;;;4942069;29;20028;-78
2022/09/16 10:38:54;;;;;;;6.07;0.93;;;;;;;;;;4936178;29;20091;-76
2022/09/16 10:41:22;;;;;;;5.47;0.90;;;;;;;;;;4936039;29;20032;-77
2022/09/16 10:44:06;;;;;;;3.38;0.80;;;;;;;;;;4927992;28;20409;-77
2022/09/16 10:46:32;;;;;;;14.68;0.90;;;;;;;;;;4936372;28;20040;-76
2022/09/16 10:49:11;;;;;;;3.20;0.52;;;;;;;;;;4919135;29;20491;-77
2022/09/16 10:51:37;;;;;;;2.95;0.52;;;;;;;;;;4930453;29;20119;-75
2022/09/16 10:54:07;;;;;;;3.40;0.75;;;;;;;;;;4920333;29;20060;-75
2022/09/16 10:56:52;;;;;;;2.60;0.57;;;;;;;;;;4931040;29;20036;-79
2022/09/16 10:59:18;;;;;;;3.92;1.00;;;;;;;;;;4915574;29;20139;-80
2022/09/16 11:01:44;;;;;;;4.18;0.85;;;;;;;;;;4933325;29;20043;-79
2022/09/16 11:04:22;;;;;;;3.83;0.98;;;;;;;;;;4914462;28;20043;-79
2022/09/16 11:07:23;;;;;;;5.45;0.82;;;;;;;;;;4922936;29;20043;-81
2022/09/16 11:09:52;;;;;;;8.63;0.70;;;;;;;;;;4888652;29;20032;-81
2022/09/16 11:12:27;;;;;;;5.18;0.85;;;;;;;;;;4921267;29;20068;-80
2022/09/16 11:15:05;;;;;;;5.25;0.98;;;;;;;;;;4927165;29;20032;-80
2022/09/16 11:17:47;;;;;;;4.90;1.00;;;;;;;;;;4926011;29;20486;-80
2022/09/16 11:20:22;;;;;;;5.47;1.08;;;;;;;;;;4927627;29;20027;-78
2022/09/16 11:22:54;;;;;;;9.40;1.60;;;;;;;;;;4927209;29;20027;-77
2022/09/16 11:25:32;;;;;;;10.77;1.50;;;;;;;;;;4924916;29;20032;-77
2022/09/16 11:28:01;;;;;;;11.50;1.77;;;;;;;;;;4929789;29;20497;-78
2022/09/16 11:30:27;;;;;;;8.27;1.35;;;;;;;;;;4930958;29;20062;-75
2022/09/16 11:33:03;;;;;;;8.50;1.50;;;;;;;;;;4933940;29;20245;-75
2022/09/16 11:35:33;;;;;;;14.38;1.75;;;;;;;;;;4935978;29;20035;-75
2022/09/16 11:38:05;;;;;;;44.50;3.47;;;;;;;;;;4935223;29;20039;-76
2022/09/16 11:40:50;;;;;;;838.78;39.67;;;;;;;;;;4934074;29;20016;-76
2022/09/16 11:43:35;;;;;;;6.05;1.40;;;;;;;;;;4931645;29;20032;-76
2022/09/16 11:46:08;;;;;;;8.48;1.23;;;;;;;;;;4928961;29;20032;-76
2022/09/16 11:48:34;;;;;;;11.23;1.33;;;;;;;;;;4928786;29;20083;-76
2022/09/16 11:51:15;;;;;;;8.80;1.38;;;;;;;;;;4919681;29;20095;-77
2022/09/16 11:53:47;;;;;;;5.28;1.05;;;;;;;;;;4923936;29;20048;-77
2022/09/16 11:56:25;;;;;;;6.53;1.05;;;;;;;;;;4922487;29;20166;-78
2022/09/16 11:58:57;;;;;;;6.95;0.90;;;;;;;;;;4938405;29;20035;-78
2022/09/16 12:01:29;;;;;;;9.02;1.20;;;;;;;;;;4934105;29;20024;-78
2022/09/16 12:03:59;;;;;;;9.18;1.15;;;;;;;;;;4936143;29;20588;-76
2022/09/16 12:06:28;;;;;;;5.20;1.00;;;;;;;;;;4929111;29;20059;-77
2022/09/16 12:09:00;;;;;;;6.50;1.00;;;;;;;;;;4935451;28;20038;-79
2022/09/16 12:11:31;;;;;;;9.85;1.40;;;;;;;;;;4939516;28;20484;-77
2022/09/16 12:14:16;;;;;;;5.75;0.90;;;;;;;;;;4930020;29;20040;-78
2022/09/16 12:16:51;;;;;;;7.13;1.02;;;;;;;;;;4929449;29;20047;-78
2022/09/16 12:19:26;;;;;;;7.40;1.92;;;;;;;;;;4919657;29;20055;-77
2022/09/16 12:21:56;;;;;;;7.90;1.60;;;;;;;;;;4923695;29;20035;-76
2022/09/16 12:24:38;;;;;;;7.30;1.02;;;;;;;;;;4936960;29;20031;-75
2022/09/16 12:27:11;;;;;;;8.90;2.03;;;;;;;;;;4949722;28;20228;-76
2022/09/16 12:29:37;;;;;;;5.53;1.00;;;;;;;;;;4938991;29;20043;-76
2022/09/16 12:32:05;;;;;;;7.88;1.50;;;;;;;;;;4939941;29;20027;-77
2022/09/16 12:34:34;;;;;;;8.95;1.77;;;;;;;;;;4937640;29;20035;-78
2022/09/16 12:37:03;;;;;;;9.77;1.95;;;;;;;;;;4931947;28;20115;-78
2022/09/16 12:39:29;;;;;;;8.68;1.40;;;;;;;;;;4934837;29;20028;-77
2022/09/16 12:41:55;;;;;;;7.95;1.40;;;;;;;;;;4944761;29;20015;-77
2022/09/16 12:44:27;;;;;;;10.23;1.52;;;;;;;;;;4953103;28;20028;-77
2022/09/16 12:47:02;;;;;;;10.02;1.77;;;;;;;;;;4939953;29;20060;-76
2022/09/16 12:49:38;;;;;;;5.68;1.10;;;;;;;;;;4922142;29;20458;-76
2022/09/16 12:52:22;;;;;;;8.75;1.63;;;;;;;;;;4934467;29;20415;-76
2022/09/16 12:54:58;;;;;;;5.60;1.27;;;;;;;;;;4936399;29;20102;-76
2022/09/16 12:57:43;;;;;;;15.70;1.75;;;;;;;;;;4938535;29;20054;-77
2022/09/16 13:00:32;;;;;;;8.85;1.70;;;;;;;;;;4936086;29;20019;-76
2022/09/16 13:03:00;;;;;;;10.05;2.05;;;;;;;;;;4932300;29;20032;-77
2022/09/16 13:05:30;;;;;;;10.90;1.83;;;;;;;;;;4932707;29;20036;-75
2022/09/16 13:07:57;;;;;;;13.68;2.08;;;;;;;;;;4935692;29;20070;-76
2022/09/16 13:10:31;;;;;;;11.57;2.08;;;;;;;;;;4938392;29;20039;-76
2022/09/16 13:12:59;;;;;;;17.50;2.35;;;;;;;;;;4938372;29;20426;-77
2022/09/16 13:15:27;;;;;;;14.10;1.80;;;;;;;;;;4940079;29;20076;-76
2022/09/16 13:17:53;;;;;;;14.27;2.00;;;;;;;;;;4926927;29;20058;-77
2022/09/16 13:20:32;;;;;;;11.82;2.00;;;;;;;;;;4942769;29;20078;-76
2022/09/16 13:23:15;;;;;;;13.68;1.80;;;;;;;;;;4938411;29;20028;-78
2022/09/16 13:25:44;;;;;;;14.68;2.38;;;;;;;;;;4935635;29;20032;-77
2022/09/16 13:28:28;;;;;;;10.55;1.92;;;;;;;;;;4943520;29;20027;-77
2022/09/16 13:30:55;;;;;;;10.45;2.08;;;;;;;;;;4940901;29;20115;-77
2022/09/16 13:33:22;;;;;;;10.43;1.88;;;;;;;;;;4943390;29;20114;-77
2022/09/16 13:35:49;;;;;;;12.77;1.70;;;;;;;;;;4942568;29;20023;-77
2022/09/16 13:38:18;;;;;;;5.55;1.00;;;;;;;;;;4940673;29;20044;-77
2022/09/16 13:40:58;;;;;;;16.55;1.67;;;;;;;;;;4943486;29;20032;-77
2022/09/16 13:43:35;;;;;;;8.15;1.48;;;;;;;;;;4947003;29;20082;-76
2022/09/16 13:46:03;;;;;;;12.50;1.65;;;;;;;;;;4939643;29;20038;-77
2022/09/16 13:48:33;;;;;;;10.82;1.33;;;;;;;;;;4953793;29;20035;-75
2022/09/16 13:51:00;;;;;;;8.35;1.20;;;;;;;;;;4952076;29;20048;-75
2022/09/16 13:53:28;;;;;;;8.77;1.63;;;;;;;;;;4942176;29;20572;-76
2022/09/16 13:55:58;;;;;;;9.02;1.80;;;;;;;;;;4946897;29;20078;-78
2022/09/16 13:58:30;;;;;;;5.35;1.35;;;;;;;;;;4951441;29;20507;-77
2022/09/16 14:01:16;;;;;;;4.90;1.17;;;;;;;;;;4943176;28;20078;-74
2022/09/16 14:04:17;;;;;;;12.90;2.30;;;;;;;;;;4935833;29;20371;-75
2022/09/16 14:06:43;;;;;;;10.60;1.80;;;;;;;;;;4932954;29;20082;-76
2022/09/16 14:09:34;;;;;;;12.13;2.10;;;;;;;;;;4946271;29;20122;-75
2022/09/16 14:12:15;;;;;;;11.63;1.67;;;;;;;;;;4947285;29;20043;-76
2022/09/16 14:14:43;;;;;;;9.90;1.45;;;;;;;;;;4947048;29;20064;-76
2022/09/16 14:17:31;;;;;;;11.70;1.80;;;;;;;;;;4943205;29;20103;-76
2022/09/16 14:19:59;;;;;;;6.20;1.38;;;;;;;;;;4942238;29;20144;-77
2022/09/16 14:22:26;;;;;;;11.38;1.67;;;;;;;;;;4944028;29;20111;-76
2022/09/16 14:24:53;;;;;;;12.05;2.47;;;;;;;;;;4938619;29;20040;-77
2022/09/16 14:27:27;;;;;;;7.18;1.60;;;;;;;;;;4939536;28;20016;-76
2022/09/16 14:29:54;;;;;;;9.20;1.48;;;;;;;;;;4941268;29;20023;-76
2022/09/16 14:32:20;;;;;;;13.60;2.20;;;;;;;;;;4937381;29;20059;-76
2022/09/16 14:34:51;;;;;;;14.93;2.28;;;;;;;;;;4935059;29;20035;-77
2022/09/16 14:37:17;;;;;;;;;;;;;;;;;;4937961;29;20020;-77
2022/09/16 14:39:43;;;;;;;17.30;2.40;;;;;;;;;;4939089;29;19924;-76
2022/09/16 14:42:14;;;;;;;16.25;2.22;;;;;;;;;;4935290;29;20035;-76
2022/09/16 14:44:40;;;;;;;;;;;;;;;;;;4936119;29;20038;-76
2022/09/16 14:47:18;;;;;;;18.20;2.75;;;;;;;;;;4929349;29;19923;-76
2022/09/16 14:49:45;;;;;;;12.68;2.20;;;;;;;;;;4920312;29;20028;-76
2022/09/16 14:52:20;;;;;;;11.73;2.00;;;;;;;;;;4930692;29;20038;-76
2022/09/16 14:54:46;;;;;;;18.92;1.90;;;;;;;;;;4935543;29;20044;-77
2022/09/16 14:57:21;;;;;;;14.93;3.33;;;;;;;;;;4914494;29;20111;-77
2022/09/16 14:59:48;;;;;;;12.43;1.95;;;;;;;;;;4915183;29;20032;-76
2022/09/16 15:02:18;;;;;;;19.48;2.67;;;;;;;;;;4925530;29;20047;-76
2022/09/16 15:04:47;;;;;;;12.23;2.55;;;;;;;;;;4924641;29;20490;-77